sensor_id;sensor_type;location;lat;lon;timestamp;P1;durP1;ratioP1;P2;durP2;ratioP2
69203;SDS011;56317;27.658;85.326;2022-12-19T00:01:25;147.45;;;76.10;;
69203;SDS011;56317;27.658;85.326;2022-12-19T00:03:58;147.73;;;74.03;;
69203;SDS011;56317;27.658;85.326;2022-12-19T00:06:27;143.57;;;72.32;;
69203;SDS011;56317;27.658;85.326;2022-12-19T00:08:55;143.52;;;74.70;;
69203;SDS011;56317;27.658;85.326;2022-12-19T00:11:25;146.95;;;72.72;;
69203;SDS011;56317;27.658;85.326;2022-12-19T00:13:53;154.30;;;74.95;;
69203;SDS011;56317;27.658;85.326;2022-12-19T00:16:21;141.70;;;71.00;;
69203;SDS011;56317;27.658;85.326;2022-12-19T00:18:51;163.65;;;77.00;;
69203;SDS011;56317;27.658;85.326;2022-12-19T00:21:22;161.38;;;77.03;;
69203;SDS011;56317;27.658;85.326;2022-12-19T00:23:51;156.38;;;78.93;;
69203;SDS011;56317;27.658;85.326;2022-12-19T00:28:49;166.63;;;81.20;;
69203;SDS011;56317;27.658;85.326;2022-12-19T00:31:21;154.68;;;72.13;;
69203;SDS011;56317;27.658;85.326;2022-12-19T00:33:50;155.45;;;73.85;;
69203;SDS011;56317;27.658;85.326;2022-12-19T00:36:22;148.50;;;70.97;;
69203;SDS011;56317;27.658;85.326;2022-12-19T00:38:51;135.32;;;65.90;;
69203;SDS011;56317;27.658;85.326;2022-12-19T00:41:24;129.77;;;64.85;;
69203;SDS011;56317;27.658;85.326;2022-12-19T00:43:58;140.43;;;67.53;;
69203;SDS011;56317;27.658;85.326;2022-12-19T00:46:30;130.95;;;64.30;;
69203;SDS011;56317;27.658;85.326;2022-12-19T00:48:59;148.93;;;68.35;;
69203;SDS011;56317;27.658;85.326;2022-12-19T00:51:28;164.70;;;71.55;;
69203;SDS011;56317;27.658;85.326;2022-12-19T00:53:57;169.10;;;71.85;;
69203;SDS011;56317;27.658;85.326;2022-12-19T00:56:26;161.90;;;68.18;;
69203;SDS011;56317;27.658;85.326;2022-12-19T00:58:55;138.52;;;67.45;;
69203;SDS011;56317;27.658;85.326;2022-12-19T01:01:23;136.65;;;67.47;;
69203;SDS011;56317;27.658;85.326;2022-12-19T01:04:02;137.63;;;68.95;;
69203;SDS011;56317;27.658;85.326;2022-12-19T01:06:30;155.43;;;70.70;;
69203;SDS011;56317;27.658;85.326;2022-12-19T01:08:57;137.90;;;68.70;;
69203;SDS011;56317;27.658;85.326;2022-12-19T01:11:25;145.63;;;69.85;;
69203;SDS011;56317;27.658;85.326;2022-12-19T01:14:10;179.35;;;78.30;;
69203;SDS011;56317;27.658;85.326;2022-12-19T01:16:39;167.43;;;79.38;;
69203;SDS011;56317;27.658;85.326;2022-12-19T01:19:06;138.40;;;71.55;;
69203;SDS011;56317;27.658;85.326;2022-12-19T01:21:33;143.82;;;76.93;;
69203;SDS011;56317;27.658;85.326;2022-12-19T01:24:01;155.13;;;78.22;;
69203;SDS011;56317;27.658;85.326;2022-12-19T01:26:29;179.88;;;90.30;;
69203;SDS011;56317;27.658;85.326;2022-12-19T01:28:57;179.32;;;85.07;;
69203;SDS011;56317;27.658;85.326;2022-12-19T01:31:24;177.60;;;84.78;;
69203;SDS011;56317;27.658;85.326;2022-12-19T01:33:51;170.82;;;84.80;;
69203;SDS011;56317;27.658;85.326;2022-12-19T01:36:19;192.13;;;88.70;;
69203;SDS011;56317;27.658;85.326;2022-12-19T01:38:46;190.77;;;86.30;;
69203;SDS011;56317;27.658;85.326;2022-12-19T01:41:13;175.95;;;87.47;;
69203;SDS011;56317;27.658;85.326;2022-12-19T01:49:33;168.15;;;92.72;;
69203;SDS011;56317;27.658;85.326;2022-12-19T01:52:03;183.23;;;96.30;;
69203;SDS011;56317;27.658;85.326;2022-12-19T01:54:34;143.65;;;75.15;;
69203;SDS011;56317;27.658;85.326;2022-12-19T01:57:03;170.90;;;96.07;;
69203;SDS011;56317;27.658;85.326;2022-12-19T02:05:03;179.57;;;97.10;;
69203;SDS011;56317;27.658;85.326;2022-12-19T02:07:31;167.13;;;91.43;;
69203;SDS011;56317;27.658;85.326;2022-12-19T02:10:00;179.68;;;94.97;;
69203;SDS011;56317;27.658;85.326;2022-12-19T02:12:29;180.00;;;92.80;;
69203;SDS011;56317;27.658;85.326;2022-12-19T02:14:59;186.13;;;95.88;;
69203;SDS011;56317;27.658;85.326;2022-12-19T02:20:21;192.63;;;101.63;;
69203;SDS011;56317;27.658;85.326;2022-12-19T02:31:37;219.00;;;118.03;;
69203;SDS011;56317;27.658;85.326;2022-12-19T02:37:01;185.73;;;104.35;;
69203;SDS011;56317;27.658;85.326;2022-12-19T02:39:54;180.30;;;105.47;;
69203;SDS011;56317;27.658;85.326;2022-12-19T02:42:29;158.23;;;99.05;;
69203;SDS011;56317;27.658;85.326;2022-12-19T02:45:00;176.00;;;95.63;;
69203;SDS011;56317;27.658;85.326;2022-12-19T02:47:31;138.02;;;79.10;;
69203;SDS011;56317;27.658;85.326;2022-12-19T02:49:59;147.05;;;81.25;;
69203;SDS011;56317;27.658;85.326;2022-12-19T02:54:55;130.73;;;75.15;;
69203;SDS011;56317;27.658;85.326;2022-12-19T02:57:29;132.98;;;75.45;;
69203;SDS011;56317;27.658;85.326;2022-12-19T03:00:21;134.55;;;77.63;;
69203;SDS011;56317;27.658;85.326;2022-12-19T03:02:54;133.63;;;76.15;;
69203;SDS011;56317;27.658;85.326;2022-12-19T03:10:57;143.73;;;77.25;;
69203;SDS011;56317;27.658;85.326;2022-12-19T03:15:58;148.18;;;85.65;;
69203;SDS011;56317;27.658;85.326;2022-12-19T03:18:26;248.68;;;181.55;;
69203;SDS011;56317;27.658;85.326;2022-12-19T03:21:01;215.20;;;152.77;;
69203;SDS011;56317;27.658;85.326;2022-12-19T03:23:37;195.82;;;134.13;;
69203;SDS011;56317;27.658;85.326;2022-12-19T03:26:06;120.85;;;72.18;;
69203;SDS011;56317;27.658;85.326;2022-12-19T03:28:55;109.70;;;67.35;;
69203;SDS011;56317;27.658;85.326;2022-12-19T03:31:42;109.60;;;65.88;;
69203;SDS011;56317;27.658;85.326;2022-12-19T03:37:02;103.63;;;63.08;;
69203;SDS011;56317;27.658;85.326;2022-12-19T03:39:31;118.40;;;73.80;;
69203;SDS011;56317;27.658;85.326;2022-12-19T03:42:00;114.78;;;77.72;;
69203;SDS011;56317;27.658;85.326;2022-12-19T03:44:47;115.40;;;72.57;;
69203;SDS011;56317;27.658;85.326;2022-12-19T03:47:19;114.15;;;78.88;;
69203;SDS011;56317;27.658;85.326;2022-12-19T03:50:00;127.50;;;80.00;;
69203;SDS011;56317;27.658;85.326;2022-12-19T03:57:56;126.07;;;76.38;;
69203;SDS011;56317;27.658;85.326;2022-12-19T04:00:32;117.72;;;77.10;;
69203;SDS011;56317;27.658;85.326;2022-12-19T04:03:02;132.60;;;79.53;;
69203;SDS011;56317;27.658;85.326;2022-12-19T04:05:32;128.77;;;79.85;;
69203;SDS011;56317;27.658;85.326;2022-12-19T04:08:03;137.25;;;81.30;;
69203;SDS011;56317;27.658;85.326;2022-12-19T04:10:33;137.30;;;82.70;;
69203;SDS011;56317;27.658;85.326;2022-12-19T04:13:25;125.97;;;82.22;;
69203;SDS011;56317;27.658;85.326;2022-12-19T04:18:40;140.35;;;82.88;;
69203;SDS011;56317;27.658;85.326;2022-12-19T04:21:24;130.27;;;81.40;;
69203;SDS011;56317;27.658;85.326;2022-12-19T04:24:04;136.38;;;83.22;;
69203;SDS011;56317;27.658;85.326;2022-12-19T04:26:43;140.48;;;86.63;;
69203;SDS011;56317;27.658;85.326;2022-12-19T04:29:14;144.10;;;88.65;;
69203;SDS011;56317;27.658;85.326;2022-12-19T04:31:43;146.90;;;86.70;;
69203;SDS011;56317;27.658;85.326;2022-12-19T04:34:11;138.55;;;91.80;;
69203;SDS011;56317;27.658;85.326;2022-12-19T04:36:39;135.40;;;85.55;;
69203;SDS011;56317;27.658;85.326;2022-12-19T04:39:06;138.27;;;88.35;;
69203;SDS011;56317;27.658;85.326;2022-12-19T04:41:34;143.77;;;87.22;;
69203;SDS011;56317;27.658;85.326;2022-12-19T04:44:01;135.05;;;90.55;;
69203;SDS011;56317;27.658;85.326;2022-12-19T04:46:28;136.05;;;92.35;;
69203;SDS011;56317;27.658;85.326;2022-12-19T04:48:56;133.13;;;85.22;;
69203;SDS011;56317;27.658;85.326;2022-12-19T04:51:23;130.18;;;88.22;;
69203;SDS011;56317;27.658;85.326;2022-12-19T04:53:50;134.93;;;85.07;;
69203;SDS011;56317;27.658;85.326;2022-12-19T04:56:18;124.88;;;84.53;;
69203;SDS011;56317;27.658;85.326;2022-12-19T04:58:46;129.98;;;84.65;;
69203;SDS011;56317;27.658;85.326;2022-12-19T05:01:13;132.73;;;83.93;;
69203;SDS011;56317;27.658;85.326;2022-12-19T05:03:40;125.32;;;80.90;;
69203;SDS011;56317;27.658;85.326;2022-12-19T05:06:09;120.93;;;77.03;;
69203;SDS011;56317;27.658;85.326;2022-12-19T05:08:39;108.35;;;75.85;;
69203;SDS011;56317;27.658;85.326;2022-12-19T05:11:08;123.97;;;77.47;;
69203;SDS011;56317;27.658;85.326;2022-12-19T05:13:37;118.22;;;80.32;;
69203;SDS011;56317;27.658;85.326;2022-12-19T05:16:05;143.00;;;92.93;;
69203;SDS011;56317;27.658;85.326;2022-12-19T05:18:34;147.57;;;94.05;;
69203;SDS011;56317;27.658;85.326;2022-12-19T05:21:03;145.73;;;95.05;;
69203;SDS011;56317;27.658;85.326;2022-12-19T05:23:31;123.80;;;80.35;;
69203;SDS011;56317;27.658;85.326;2022-12-19T05:25:58;110.55;;;74.45;;
69203;SDS011;56317;27.658;85.326;2022-12-19T05:28:36;121.00;;;76.35;;
69203;SDS011;56317;27.658;85.326;2022-12-19T05:31:08;106.45;;;69.88;;
69203;SDS011;56317;27.658;85.326;2022-12-19T05:33:53;85.97;;;56.58;;
69203;SDS011;56317;27.658;85.326;2022-12-19T05:36:21;73.05;;;50.00;;
69203;SDS011;56317;27.658;85.326;2022-12-19T05:38:48;61.92;;;42.08;;
69203;SDS011;56317;27.658;85.326;2022-12-19T05:41:16;65.93;;;47.65;;
69203;SDS011;56317;27.658;85.326;2022-12-19T05:43:45;70.68;;;47.67;;
69203;SDS011;56317;27.658;85.326;2022-12-19T05:46:16;79.15;;;50.15;;
69203;SDS011;56317;27.658;85.326;2022-12-19T05:48:44;82.82;;;61.80;;
69203;SDS011;56317;27.658;85.326;2022-12-19T05:51:12;74.90;;;50.40;;
69203;SDS011;56317;27.658;85.326;2022-12-19T05:53:40;80.40;;;55.90;;
69203;SDS011;56317;27.658;85.326;2022-12-19T05:56:17;96.32;;;61.22;;
69203;SDS011;56317;27.658;85.326;2022-12-19T05:58:46;83.57;;;57.78;;
69203;SDS011;56317;27.658;85.326;2022-12-19T06:01:18;73.03;;;52.25;;
69203;SDS011;56317;27.658;85.326;2022-12-19T06:03:48;83.97;;;57.30;;
69203;SDS011;56317;27.658;85.326;2022-12-19T06:06:16;90.28;;;58.30;;
69203;SDS011;56317;27.658;85.326;2022-12-19T06:08:46;77.95;;;52.00;;
69203;SDS011;56317;27.658;85.326;2022-12-19T06:11:17;72.80;;;49.28;;
69203;SDS011;56317;27.658;85.326;2022-12-19T06:13:45;76.05;;;45.53;;
69203;SDS011;56317;27.658;85.326;2022-12-19T06:16:13;63.53;;;44.22;;
69203;SDS011;56317;27.658;85.326;2022-12-19T06:18:43;62.53;;;41.50;;
69203;SDS011;56317;27.658;85.326;2022-12-19T06:21:15;56.28;;;41.30;;
69203;SDS011;56317;27.658;85.326;2022-12-19T06:23:44;60.40;;;42.72;;
69203;SDS011;56317;27.658;85.326;2022-12-19T06:26:15;66.18;;;45.17;;
69203;SDS011;56317;27.658;85.326;2022-12-19T06:28:44;60.57;;;43.17;;
69203;SDS011;56317;27.658;85.326;2022-12-19T06:31:13;62.72;;;44.30;;
69203;SDS011;56317;27.658;85.326;2022-12-19T06:33:41;62.53;;;46.30;;
69203;SDS011;56317;27.658;85.326;2022-12-19T06:36:19;68.75;;;44.10;;
69203;SDS011;56317;27.658;85.326;2022-12-19T06:38:48;64.10;;;43.07;;
69203;SDS011;56317;27.658;85.326;2022-12-19T06:41:16;73.45;;;46.08;;
69203;SDS011;56317;27.658;85.326;2022-12-19T06:44:03;40.47;;;30.52;;
69203;SDS011;56317;27.658;85.326;2022-12-19T06:46:32;53.53;;;36.25;;
69203;SDS011;56317;27.658;85.326;2022-12-19T06:48:59;52.30;;;36.22;;
69203;SDS011;56317;27.658;85.326;2022-12-19T06:51:27;55.58;;;37.88;;
69203;SDS011;56317;27.658;85.326;2022-12-19T06:53:56;55.35;;;38.40;;
69203;SDS011;56317;27.658;85.326;2022-12-19T06:56:23;54.08;;;37.83;;
69203;SDS011;56317;27.658;85.326;2022-12-19T06:58:50;53.05;;;37.85;;
69203;SDS011;56317;27.658;85.326;2022-12-19T07:01:18;50.05;;;37.08;;
69203;SDS011;56317;27.658;85.326;2022-12-19T07:03:50;55.50;;;38.08;;
69203;SDS011;56317;27.658;85.326;2022-12-19T07:06:17;50.40;;;35.85;;
69203;SDS011;56317;27.658;85.326;2022-12-19T07:08:45;54.53;;;36.97;;
69203;SDS011;56317;27.658;85.326;2022-12-19T07:11:12;55.70;;;36.53;;
69203;SDS011;56317;27.658;85.326;2022-12-19T07:13:39;59.30;;;37.13;;
69203;SDS011;56317;27.658;85.326;2022-12-19T07:16:07;62.75;;;35.90;;
69203;SDS011;56317;27.658;85.326;2022-12-19T07:18:35;52.22;;;35.35;;
69203;SDS011;56317;27.658;85.326;2022-12-19T07:23:33;49.03;;;28.30;;
69203;SDS011;56317;27.658;85.326;2022-12-19T07:26:01;53.67;;;29.13;;
69203;SDS011;56317;27.658;85.326;2022-12-19T07:28:28;43.70;;;27.23;;
69203;SDS011;56317;27.658;85.326;2022-12-19T07:30:57;52.92;;;27.52;;
69203;SDS011;56317;27.658;85.326;2022-12-19T07:33:25;47.22;;;26.67;;
69203;SDS011;56317;27.658;85.326;2022-12-19T07:35:52;54.88;;;29.88;;
69203;SDS011;56317;27.658;85.326;2022-12-19T07:38:19;49.08;;;29.55;;
69203;SDS011;56317;27.658;85.326;2022-12-19T07:40:46;46.45;;;27.40;;
69203;SDS011;56317;27.658;85.326;2022-12-19T07:43:14;54.15;;;28.23;;
69203;SDS011;56317;27.658;85.326;2022-12-19T07:45:41;45.88;;;27.67;;
69203;SDS011;56317;27.658;85.326;2022-12-19T07:48:08;42.88;;;24.83;;
69203;SDS011;56317;27.658;85.326;2022-12-19T07:50:36;47.22;;;22.05;;
69203;SDS011;56317;27.658;85.326;2022-12-19T07:53:03;34.10;;;20.77;;
69203;SDS011;56317;27.658;85.326;2022-12-19T07:55:30;39.45;;;19.45;;
69203;SDS011;56317;27.658;85.326;2022-12-19T07:57:58;26.08;;;16.98;;
69203;SDS011;56317;27.658;85.326;2022-12-19T08:00:25;31.80;;;16.73;;
69203;SDS011;56317;27.658;85.326;2022-12-19T08:02:52;21.02;;;15.07;;
69203;SDS011;56317;27.658;85.326;2022-12-19T08:05:20;27.55;;;15.35;;
69203;SDS011;56317;27.658;85.326;2022-12-19T08:07:47;27.40;;;16.48;;
69203;SDS011;56317;27.658;85.326;2022-12-19T08:10:14;33.97;;;16.85;;
69203;SDS011;56317;27.658;85.326;2022-12-19T08:12:42;32.13;;;17.55;;
69203;SDS011;56317;27.658;85.326;2022-12-19T08:15:09;35.35;;;18.63;;
69203;SDS011;56317;27.658;85.326;2022-12-19T08:17:37;37.95;;;17.73;;
69203;SDS011;56317;27.658;85.326;2022-12-19T08:20:05;24.33;;;16.25;;
69203;SDS011;56317;27.658;85.326;2022-12-19T08:22:33;30.67;;;15.70;;
69203;SDS011;56317;27.658;85.326;2022-12-19T08:25:00;29.65;;;13.93;;
69203;SDS011;56317;27.658;85.326;2022-12-19T08:27:28;18.60;;;11.02;;
69203;SDS011;56317;27.658;85.326;2022-12-19T08:29:55;28.50;;;12.20;;
69203;SDS011;56317;27.658;85.326;2022-12-19T08:32:23;21.80;;;12.25;;
69203;SDS011;56317;27.658;85.326;2022-12-19T08:37:21;30.38;;;10.98;;
69203;SDS011;56317;27.658;85.326;2022-12-19T08:39:48;22.67;;;10.68;;
69203;SDS011;56317;27.658;85.326;2022-12-19T08:42:15;15.00;;;9.30;;
69203;SDS011;56317;27.658;85.326;2022-12-19T08:44:43;25.45;;;11.50;;
69203;SDS011;56317;27.658;85.326;2022-12-19T08:47:10;19.30;;;11.77;;
69203;SDS011;56317;27.658;85.326;2022-12-19T08:49:38;21.95;;;11.90;;
69203;SDS011;56317;27.658;85.326;2022-12-19T08:52:05;23.02;;;11.57;;
69203;SDS011;56317;27.658;85.326;2022-12-19T08:54:32;38.95;;;13.95;;
69203;SDS011;56317;27.658;85.326;2022-12-19T08:57:00;27.35;;;12.90;;
69203;SDS011;56317;27.658;85.326;2022-12-19T08:59:27;25.65;;;13.52;;
69203;SDS011;56317;27.658;85.326;2022-12-19T09:01:54;28.67;;;14.70;;
69203;SDS011;56317;27.658;85.326;2022-12-19T09:04:21;28.98;;;13.73;;
69203;SDS011;56317;27.658;85.326;2022-12-19T09:06:48;23.40;;;13.30;;
69203;SDS011;56317;27.658;85.326;2022-12-19T09:09:16;28.55;;;13.90;;
69203;SDS011;56317;27.658;85.326;2022-12-19T09:11:43;30.15;;;14.52;;
69203;SDS011;56317;27.658;85.326;2022-12-19T09:14:10;27.38;;;13.88;;
69203;SDS011;56317;27.658;85.326;2022-12-19T09:16:38;27.92;;;14.05;;
69203;SDS011;56317;27.658;85.326;2022-12-19T09:19:05;26.67;;;14.63;;
69203;SDS011;56317;27.658;85.326;2022-12-19T09:21:32;34.65;;;14.68;;
69203;SDS011;56317;27.658;85.326;2022-12-19T09:23:59;31.83;;;15.73;;
69203;SDS011;56317;27.658;85.326;2022-12-19T09:26:27;23.65;;;15.55;;
69203;SDS011;56317;27.658;85.326;2022-12-19T09:28:54;32.83;;;15.18;;
69203;SDS011;56317;27.658;85.326;2022-12-19T09:31:23;27.95;;;14.60;;
69203;SDS011;56317;27.658;85.326;2022-12-19T09:33:51;26.83;;;14.57;;
69203;SDS011;56317;27.658;85.326;2022-12-19T09:36:19;25.23;;;14.52;;
69203;SDS011;56317;27.658;85.326;2022-12-19T09:38:49;29.45;;;14.55;;
69203;SDS011;56317;27.658;85.326;2022-12-19T09:46:54;35.03;;;16.25;;
69203;SDS011;56317;27.658;85.326;2022-12-19T09:49:45;27.67;;;15.48;;
69203;SDS011;56317;27.658;85.326;2022-12-19T10:00:18;40.65;;;19.17;;
69203;SDS011;56317;27.658;85.326;2022-12-19T10:08:16;38.97;;;19.30;;
69203;SDS011;56317;27.658;85.326;2022-12-19T10:10:59;37.58;;;20.25;;
69203;SDS011;56317;27.658;85.326;2022-12-19T10:31:22;41.95;;;25.25;;
69203;SDS011;56317;27.658;85.326;2022-12-19T10:34:21;43.05;;;23.13;;
69203;SDS011;56317;27.658;85.326;2022-12-19T10:36:53;62.22;;;27.17;;
69203;SDS011;56317;27.658;85.326;2022-12-19T10:39:27;42.42;;;25.02;;
69203;SDS011;56317;27.658;85.326;2022-12-19T10:41:55;52.95;;;26.38;;
69203;SDS011;56317;27.658;85.326;2022-12-19T10:44:34;48.67;;;27.08;;
69203;SDS011;56317;27.658;85.326;2022-12-19T10:47:06;46.15;;;25.35;;
69203;SDS011;56317;27.658;85.326;2022-12-19T10:49:39;54.90;;;27.67;;
69203;SDS011;56317;27.658;85.326;2022-12-19T10:52:07;52.42;;;28.88;;
69203;SDS011;56317;27.658;85.326;2022-12-19T11:02:47;58.33;;;32.35;;
69203;SDS011;56317;27.658;85.326;2022-12-19T11:08:16;87.28;;;40.03;;
69203;SDS011;56317;27.658;85.326;2022-12-19T11:10:51;164.38;;;82.95;;
69203;SDS011;56317;27.658;85.326;2022-12-19T11:16:07;92.25;;;47.63;;
69203;SDS011;56317;27.658;85.326;2022-12-19T11:18:39;86.88;;;43.30;;
69203;SDS011;56317;27.658;85.326;2022-12-19T11:21:18;74.30;;;37.97;;
69203;SDS011;56317;27.658;85.326;2022-12-19T11:26:35;69.53;;;38.95;;
69203;SDS011;56317;27.658;85.326;2022-12-19T11:29:18;73.93;;;39.25;;
69203;SDS011;56317;27.658;85.326;2022-12-19T11:31:52;56.17;;;31.52;;
69203;SDS011;56317;27.658;85.326;2022-12-19T11:34:28;60.40;;;33.17;;
69203;SDS011;56317;27.658;85.326;2022-12-19T11:42:29;67.10;;;34.40;;
69203;SDS011;56317;27.658;85.326;2022-12-19T11:45:19;60.60;;;35.97;;
69203;SDS011;56317;27.658;85.326;2022-12-19T11:48:18;71.03;;;39.00;;
69203;SDS011;56317;27.658;85.326;2022-12-19T11:56:26;89.88;;;43.13;;
69203;SDS011;56317;27.658;85.326;2022-12-19T12:01:52;88.25;;;43.72;;
69203;SDS011;56317;27.658;85.326;2022-12-19T12:07:25;78.10;;;39.08;;
69203;SDS011;56317;27.658;85.326;2022-12-19T12:10:00;79.78;;;37.85;;
69203;SDS011;56317;27.658;85.326;2022-12-19T12:28:58;83.18;;;42.42;;
69203;SDS011;56317;27.658;85.326;2022-12-19T12:31:52;82.20;;;44.20;;
69203;SDS011;56317;27.658;85.326;2022-12-19T12:37:31;79.82;;;43.25;;
69203;SDS011;56317;27.658;85.326;2022-12-19T12:43:23;82.85;;;44.70;;
69203;SDS011;56317;27.658;85.326;2022-12-19T12:46:11;78.18;;;43.35;;
69203;SDS011;56317;27.658;85.326;2022-12-19T12:51:47;97.28;;;50.85;;
69203;SDS011;56317;27.658;85.326;2022-12-19T12:54:15;104.80;;;52.03;;
69203;SDS011;56317;27.658;85.326;2022-12-19T12:56:43;127.05;;;69.93;;
69203;SDS011;56317;27.658;85.326;2022-12-19T12:59:20;131.18;;;74.28;;
69203;SDS011;56317;27.658;85.326;2022-12-19T13:01:59;122.55;;;63.72;;
69203;SDS011;56317;27.658;85.326;2022-12-19T13:04:42;109.55;;;60.47;;
69203;SDS011;56317;27.658;85.326;2022-12-19T13:07:40;129.57;;;64.88;;
69203;SDS011;56317;27.658;85.326;2022-12-19T13:12:52;106.40;;;60.83;;
69203;SDS011;56317;27.658;85.326;2022-12-19T13:15:40;113.35;;;58.30;;
69203;SDS011;56317;27.658;85.326;2022-12-19T13:18:13;104.30;;;56.20;;
69203;SDS011;56317;27.658;85.326;2022-12-19T13:21:03;104.95;;;60.10;;
69203;SDS011;56317;27.658;85.326;2022-12-19T13:26:02;126.57;;;69.53;;
69203;SDS011;56317;27.658;85.326;2022-12-19T13:39:26;148.25;;;74.65;;
69203;SDS011;56317;27.658;85.326;2022-12-19T13:42:21;168.35;;;84.63;;
69203;SDS011;56317;27.658;85.326;2022-12-19T13:45:29;165.68;;;85.97;;
69203;SDS011;56317;27.658;85.326;2022-12-19T13:47:59;266.60;;;156.98;;
69203;SDS011;56317;27.658;85.326;2022-12-19T13:50:38;249.80;;;144.35;;
69203;SDS011;56317;27.658;85.326;2022-12-19T13:55:45;201.50;;;111.57;;
69203;SDS011;56317;27.658;85.326;2022-12-19T14:01:07;214.35;;;119.57;;
69203;SDS011;56317;27.658;85.326;2022-12-19T14:03:53;135.07;;;84.15;;
69203;SDS011;56317;27.658;85.326;2022-12-19T14:06:23;192.85;;;106.30;;
69203;SDS011;56317;27.658;85.326;2022-12-19T14:09:03;208.65;;;115.63;;
69203;SDS011;56317;27.658;85.326;2022-12-19T14:11:38;192.88;;;106.43;;
69203;SDS011;56317;27.658;85.326;2022-12-19T14:14:17;184.77;;;105.25;;
69203;SDS011;56317;27.658;85.326;2022-12-19T14:17:15;211.73;;;114.00;;
69203;SDS011;56317;27.658;85.326;2022-12-19T14:19:46;158.68;;;88.55;;
69203;SDS011;56317;27.658;85.326;2022-12-19T14:24:54;179.57;;;102.03;;
69203;SDS011;56317;27.658;85.326;2022-12-19T14:27:32;164.45;;;92.07;;
69203;SDS011;56317;27.658;85.326;2022-12-19T14:30:19;153.52;;;89.97;;
69203;SDS011;56317;27.658;85.326;2022-12-19T14:32:51;131.13;;;75.25;;
69203;SDS011;56317;27.658;85.326;2022-12-19T14:35:23;141.85;;;78.68;;
69203;SDS011;56317;27.658;85.326;2022-12-19T14:37:59;142.43;;;77.55;;
69203;SDS011;56317;27.658;85.326;2022-12-19T14:40:30;132.23;;;76.68;;
69203;SDS011;56317;27.658;85.326;2022-12-19T14:43:00;120.97;;;64.97;;
69203;SDS011;56317;27.658;85.326;2022-12-19T14:45:52;112.68;;;62.50;;
69203;SDS011;56317;27.658;85.326;2022-12-19T14:48:35;104.38;;;60.80;;
69203;SDS011;56317;27.658;85.326;2022-12-19T15:02:21;98.38;;;57.47;;
69203;SDS011;56317;27.658;85.326;2022-12-19T15:04:45;106.07;;;58.03;;
69203;SDS011;56317;27.658;85.326;2022-12-19T15:07:32;111.38;;;57.67;;
69203;SDS011;56317;27.658;85.326;2022-12-19T15:10:13;116.45;;;61.75;;
69203;SDS011;56317;27.658;85.326;2022-12-19T15:21:01;115.93;;;58.97;;
69203;SDS011;56317;27.658;85.326;2022-12-19T15:23:31;112.90;;;57.83;;
69203;SDS011;56317;27.658;85.326;2022-12-19T15:26:02;111.07;;;58.05;;
69203;SDS011;56317;27.658;85.326;2022-12-19T15:33:50;127.55;;;61.63;;
69203;SDS011;56317;27.658;85.326;2022-12-19T15:36:18;120.55;;;60.97;;
69203;SDS011;56317;27.658;85.326;2022-12-19T15:38:45;138.20;;;63.08;;
69203;SDS011;56317;27.658;85.326;2022-12-19T15:41:14;129.98;;;65.70;;
69203;SDS011;56317;27.658;85.326;2022-12-19T15:43:45;147.90;;;82.35;;
69203;SDS011;56317;27.658;85.326;2022-12-19T15:46:13;156.68;;;87.50;;
69203;SDS011;56317;27.658;85.326;2022-12-19T15:48:41;137.63;;;83.90;;
69203;SDS011;56317;27.658;85.326;2022-12-19T15:53:39;152.95;;;84.53;;
69203;SDS011;56317;27.658;85.326;2022-12-19T15:56:15;146.70;;;83.72;;
69203;SDS011;56317;27.658;85.326;2022-12-19T15:58:51;141.13;;;80.40;;
69203;SDS011;56317;27.658;85.326;2022-12-19T16:01:20;149.93;;;82.97;;
69203;SDS011;56317;27.658;85.326;2022-12-19T16:03:47;152.25;;;80.95;;
69203;SDS011;56317;27.658;85.326;2022-12-19T16:06:15;163.20;;;83.68;;
69203;SDS011;56317;27.658;85.326;2022-12-19T16:08:43;157.88;;;83.38;;
69203;SDS011;56317;27.658;85.326;2022-12-19T16:11:15;148.60;;;82.80;;
69203;SDS011;56317;27.658;85.326;2022-12-19T16:13:49;159.98;;;81.90;;
69203;SDS011;56317;27.658;85.326;2022-12-19T16:16:21;157.07;;;81.45;;
69203;SDS011;56317;27.658;85.326;2022-12-19T16:18:49;142.65;;;80.60;;
69203;SDS011;56317;27.658;85.326;2022-12-19T16:21:18;139.68;;;79.05;;
69203;SDS011;56317;27.658;85.326;2022-12-19T16:23:47;141.55;;;77.43;;
69203;SDS011;56317;27.658;85.326;2022-12-19T16:26:17;137.70;;;77.47;;
69203;SDS011;56317;27.658;85.326;2022-12-19T16:28:52;137.98;;;77.50;;
69203;SDS011;56317;27.658;85.326;2022-12-19T16:31:21;147.50;;;79.65;;
69203;SDS011;56317;27.658;85.326;2022-12-19T16:33:50;134.10;;;72.05;;
69203;SDS011;56317;27.658;85.326;2022-12-19T16:36:17;143.07;;;71.43;;
69203;SDS011;56317;27.658;85.326;2022-12-19T16:38:44;137.02;;;71.13;;
69203;SDS011;56317;27.658;85.326;2022-12-19T16:41:21;143.68;;;69.20;;
69203;SDS011;56317;27.658;85.326;2022-12-19T16:43:50;118.07;;;67.65;;
69203;SDS011;56317;27.658;85.326;2022-12-19T16:46:18;124.28;;;66.07;;
69203;SDS011;56317;27.658;85.326;2022-12-19T16:48:48;118.70;;;67.95;;
69203;SDS011;56317;27.658;85.326;2022-12-19T16:51:20;129.07;;;68.60;;
69203;SDS011;56317;27.658;85.326;2022-12-19T16:53:49;127.05;;;67.45;;
69203;SDS011;56317;27.658;85.326;2022-12-19T16:56:36;130.43;;;65.43;;
69203;SDS011;56317;27.658;85.326;2022-12-19T16:59:30;142.55;;;73.65;;
69203;SDS011;56317;27.658;85.326;2022-12-19T17:01:58;164.07;;;84.97;;
69203;SDS011;56317;27.658;85.326;2022-12-19T17:04:25;160.63;;;77.75;;
69203;SDS011;56317;27.658;85.326;2022-12-19T17:06:54;142.15;;;76.50;;
69203;SDS011;56317;27.658;85.326;2022-12-19T17:09:22;158.23;;;77.78;;
69203;SDS011;56317;27.658;85.326;2022-12-19T17:11:51;161.63;;;77.55;;
69203;SDS011;56317;27.658;85.326;2022-12-19T17:14:21;158.93;;;76.30;;
69203;SDS011;56317;27.658;85.326;2022-12-19T17:16:51;154.32;;;83.55;;
69203;SDS011;56317;27.658;85.326;2022-12-19T17:19:23;150.05;;;83.75;;
69203;SDS011;56317;27.658;85.326;2022-12-19T17:22:15;122.90;;;64.55;;
69203;SDS011;56317;27.658;85.326;2022-12-19T17:24:46;172.65;;;76.80;;
69203;SDS011;56317;27.658;85.326;2022-12-19T17:27:14;113.45;;;57.17;;
69203;SDS011;56317;27.658;85.326;2022-12-19T17:29:43;137.20;;;74.70;;
69203;SDS011;56317;27.658;85.326;2022-12-19T17:32:14;126.97;;;73.75;;
69203;SDS011;56317;27.658;85.326;2022-12-19T17:34:42;148.60;;;77.68;;
69203;SDS011;56317;27.658;85.326;2022-12-19T17:37:12;159.40;;;76.78;;
69203;SDS011;56317;27.658;85.326;2022-12-19T17:39:41;164.35;;;81.53;;
69203;SDS011;56317;27.658;85.326;2022-12-19T17:42:30;146.35;;;77.65;;
69203;SDS011;56317;27.658;85.326;2022-12-19T17:44:57;149.23;;;77.85;;
69203;SDS011;56317;27.658;85.326;2022-12-19T17:47:24;140.52;;;75.65;;
69203;SDS011;56317;27.658;85.326;2022-12-19T17:49:53;179.75;;;76.13;;